sensor_id;sensor_type;location;lat;lon;timestamp;temperature;humidity
21214;DHT22;10764;50.850;2.904;2022-12-18T00:01:25;13.70;36.00
21214;DHT22;10764;50.850;2.904;2022-12-18T00:03:54;13.90;36.10
21214;DHT22;10764;50.850;2.904;2022-12-18T00:06:22;14.00;36.10
21214;DHT22;10764;50.850;2.904;2022-12-18T00:08:49;13.90;36.70
21214;DHT22;10764;50.850;2.904;2022-12-18T00:11:18;13.80;36.00
21214;DHT22;10764;50.850;2.904;2022-12-18T00:13:46;16.90;37.50
21214;DHT22;10764;50.850;2.904;2022-12-18T00:16:15;13.90;36.00
21214;DHT22;10764;50.850;2.904;2022-12-18T00:18:42;13.90;36.00
21214;DHT22;10764;50.850;2.904;2022-12-18T00:21:10;16.30;37.10
21214;DHT22;10764;50.850;2.904;2022-12-18T00:23:39;16.30;37.10
21214;DHT22;10764;50.850;2.904;2022-12-18T00:26:11;13.40;35.60
21214;DHT22;10764;50.850;2.904;2022-12-18T00:28:38;15.60;36.70
21214;DHT22;10764;50.850;2.904;2022-12-18T00:31:11;13.80;35.80
21214;DHT22;10764;50.850;2.904;2022-12-18T00:33:38;13.80;35.70
21214;DHT22;10764;50.850;2.904;2022-12-18T00:36:15;13.90;35.20
21214;DHT22;10764;50.850;2.904;2022-12-18T00:38:43;14.80;36.20
21214;DHT22;10764;50.850;2.904;2022-12-18T00:41:12;15.00;36.30
21214;DHT22;10764;50.850;2.904;2022-12-18T00:43:40;13.80;35.70
21214;DHT22;10764;50.850;2.904;2022-12-18T00:46:07;13.80;35.60
21214;DHT22;10764;50.850;2.904;2022-12-18T00:48:35;13.70;35.70
21214;DHT22;10764;50.850;2.904;2022-12-18T00:51:02;13.80;35.70
21214;DHT22;10764;50.850;2.904;2022-12-18T00:53:28;13.90;35.70
21214;DHT22;10764;50.850;2.904;2022-12-18T00:55:55;13.90;35.70
21214;DHT22;10764;50.850;2.904;2022-12-18T00:58:22;13.90;35.00
21214;DHT22;10764;50.850;2.904;2022-12-18T01:00:49;13.90;35.70
21214;DHT22;10764;50.850;2.904;2022-12-18T01:03:15;14.00;35.00
21214;DHT22;10764;50.850;2.904;2022-12-18T01:05:43;13.90;35.60
21214;DHT22;10764;50.850;2.904;2022-12-18T01:08:10;13.90;35.60
21214;DHT22;10764;50.850;2.904;2022-12-18T01:10:40;17.00;37.10
21214;DHT22;10764;50.850;2.904;2022-12-18T01:13:08;13.80;35.50
21214;DHT22;10764;50.850;2.904;2022-12-18T01:15:35;17.10;37.10
21214;DHT22;10764;50.850;2.904;2022-12-18T01:18:02;13.70;35.40
21214;DHT22;10764;50.850;2.904;2022-12-18T01:20:29;14.60;35.90
21214;DHT22;10764;50.850;2.904;2022-12-18T01:22:55;13.90;35.50
21214;DHT22;10764;50.850;2.904;2022-12-18T01:25:22;13.80;35.60
21214;DHT22;10764;50.850;2.904;2022-12-18T01:27:50;13.00;35.30
21214;DHT22;10764;50.850;2.904;2022-12-18T01:30:16;13.80;35.50
21214;DHT22;10764;50.850;2.904;2022-12-18T01:32:44;16.30;36.70
21214;DHT22;10764;50.850;2.904;2022-12-18T01:35:11;13.90;34.70
21214;DHT22;10764;50.850;2.904;2022-12-18T01:37:38;15.10;36.30
21214;DHT22;10764;50.850;2.904;2022-12-18T01:40:05;13.90;35.30
21214;DHT22;10764;50.850;2.904;2022-12-18T01:42:32;13.90;35.40
21214;DHT22;10764;50.850;2.904;2022-12-18T01:47:43;13.80;35.30
21214;DHT22;10764;50.850;2.904;2022-12-18T01:50:16;13.90;35.20
21214;DHT22;10764;50.850;2.904;2022-12-18T01:52:47;17.20;36.80
21214;DHT22;10764;50.850;2.904;2022-12-18T01:55:17;13.70;35.10
21214;DHT22;10764;50.850;2.904;2022-12-18T01:57:45;13.80;35.10
21214;DHT22;10764;50.850;2.904;2022-12-18T02:00:16;13.80;35.10
21214;DHT22;10764;50.850;2.904;2022-12-18T02:02:45;13.90;35.20
21214;DHT22;10764;50.850;2.904;2022-12-18T02:05:27;15.60;35.90
21214;DHT22;10764;50.850;2.904;2022-12-18T02:08:10;13.80;35.10
21214;DHT22;10764;50.850;2.904;2022-12-18T02:11:02;13.90;35.20
21214;DHT22;10764;50.850;2.904;2022-12-18T02:13:48;13.90;35.00
21214;DHT22;10764;50.850;2.904;2022-12-18T02:16:24;13.90;35.00
21214;DHT22;10764;50.850;2.904;2022-12-18T02:18:57;13.80;35.00
21214;DHT22;10764;50.850;2.904;2022-12-18T02:21:54;13.80;35.00
21214;DHT22;10764;50.850;2.904;2022-12-18T02:24:43;13.90;35.00
21214;DHT22;10764;50.850;2.904;2022-12-18T02:27:12;13.80;34.90
21214;DHT22;10764;50.850;2.904;2022-12-18T02:29:53;13.20;34.60
21214;DHT22;10764;50.850;2.904;2022-12-18T02:32:38;13.80;34.90
21214;DHT22;10764;50.850;2.904;2022-12-18T02:35:08;13.80;34.30
21214;DHT22;10764;50.850;2.904;2022-12-18T02:37:39;13.80;35.00
21214;DHT22;10764;50.850;2.904;2022-12-18T02:40:08;13.80;34.30
21214;DHT22;10764;50.850;2.904;2022-12-18T02:42:36;13.90;34.30
21214;DHT22;10764;50.850;2.904;2022-12-18T02:45:06;16.50;36.30
21214;DHT22;10764;50.850;2.904;2022-12-18T02:47:41;13.90;35.00
21214;DHT22;10764;50.850;2.904;2022-12-18T02:50:34;16.60;36.20
21214;DHT22;10764;50.850;2.904;2022-12-18T02:53:23;16.30;36.00
21214;DHT22;10764;50.850;2.904;2022-12-18T02:56:05;13.80;34.20
21214;DHT22;10764;50.850;2.904;2022-12-18T02:58:59;13.80;34.70
21214;DHT22;10764;50.850;2.904;2022-12-18T03:07:05;13.90;34.70
21214;DHT22;10764;50.850;2.904;2022-12-18T03:09:38;13.60;34.60
21214;DHT22;10764;50.850;2.904;2022-12-18T03:12:13;13.70;34.10
21214;DHT22;10764;50.850;2.904;2022-12-18T03:15:00;13.90;34.80
21214;DHT22;10764;50.850;2.904;2022-12-18T03:17:32;13.80;34.00
21214;DHT22;10764;50.850;2.904;2022-12-18T03:20:06;13.80;34.70
21214;DHT22;10764;50.850;2.904;2022-12-18T03:22:35;13.50;34.50
21214;DHT22;10764;50.850;2.904;2022-12-18T03:25:06;13.80;34.60
21214;DHT22;10764;50.850;2.904;2022-12-18T03:27:38;13.80;34.70
21214;DHT22;10764;50.850;2.904;2022-12-18T03:30:12;13.30;34.40
21214;DHT22;10764;50.850;2.904;2022-12-18T03:33:13;13.80;34.70
21214;DHT22;10764;50.850;2.904;2022-12-18T03:35:44;13.70;33.90
21214;DHT22;10764;50.850;2.904;2022-12-18T03:38:12;13.60;34.50
21214;DHT22;10764;50.850;2.904;2022-12-18T03:43:26;13.80;34.00
21214;DHT22;10764;50.850;2.904;2022-12-18T03:46:04;13.70;34.50
21214;DHT22;10764;50.850;2.904;2022-12-18T03:48:41;13.80;34.60
21214;DHT22;10764;50.850;2.904;2022-12-18T03:51:24;13.40;34.30
21214;DHT22;10764;50.850;2.904;2022-12-18T03:53:57;13.80;34.40
21214;DHT22;10764;50.850;2.904;2022-12-18T03:56:33;13.80;34.50
21214;DHT22;10764;50.850;2.904;2022-12-18T03:59:03;13.80;34.50
21214;DHT22;10764;50.850;2.904;2022-12-18T04:01:37;15.80;35.40
21214;DHT22;10764;50.850;2.904;2022-12-18T04:04:06;13.80;33.80
21214;DHT22;10764;50.850;2.904;2022-12-18T04:06:37;11.70;33.50
21214;DHT22;10764;50.850;2.904;2022-12-18T04:09:06;13.50;34.30
21214;DHT22;10764;50.850;2.904;2022-12-18T04:11:37;13.70;34.40
21214;DHT22;10764;50.850;2.904;2022-12-18T04:14:05;16.60;35.80
21214;DHT22;10764;50.850;2.904;2022-12-18T04:16:33;13.70;34.40
21214;DHT22;10764;50.850;2.904;2022-12-18T04:19:03;13.70;33.70
21214;DHT22;10764;50.850;2.904;2022-12-18T04:21:36;16.60;35.70
21214;DHT22;10764;50.850;2.904;2022-12-18T04:24:03;14.90;35.00
21214;DHT22;10764;50.850;2.904;2022-12-18T04:26:32;13.80;34.50
21214;DHT22;10764;50.850;2.904;2022-12-18T04:29:31;16.70;35.80
21214;DHT22;10764;50.850;2.904;2022-12-18T04:31:58;13.40;34.20
21214;DHT22;10764;50.850;2.904;2022-12-18T04:34:27;13.80;33.70
21214;DHT22;10764;50.850;2.904;2022-12-18T04:36:54;13.70;33.60
21214;DHT22;10764;50.850;2.904;2022-12-18T04:39:22;13.60;34.30
21214;DHT22;10764;50.850;2.904;2022-12-18T04:41:53;15.70;35.30
21214;DHT22;10764;50.850;2.904;2022-12-18T04:44:19;15.10;35.00
21214;DHT22;10764;50.850;2.904;2022-12-18T04:46:46;13.60;34.30
21214;DHT22;10764;50.850;2.904;2022-12-18T04:49:13;15.70;35.30
21214;DHT22;10764;50.850;2.904;2022-12-18T04:51:40;13.80;34.50
21214;DHT22;10764;50.850;2.904;2022-12-18T04:54:06;13.20;34.00
21214;DHT22;10764;50.850;2.904;2022-12-18T04:56:33;13.10;34.00
21214;DHT22;10764;50.850;2.904;2022-12-18T04:59:00;16.00;35.30
21214;DHT22;10764;50.850;2.904;2022-12-18T05:01:27;13.50;34.20
21214;DHT22;10764;50.850;2.904;2022-12-18T05:04:01;15.20;34.90
21214;DHT22;10764;50.850;2.904;2022-12-18T05:06:27;13.60;34.10
21214;DHT22;10764;50.850;2.904;2022-12-18T05:08:54;13.70;33.50
21214;DHT22;10764;50.850;2.904;2022-12-18T05:11:21;13.50;34.10
21214;DHT22;10764;50.850;2.904;2022-12-18T05:13:48;16.70;35.60
21214;DHT22;10764;50.850;2.904;2022-12-18T05:16:15;13.40;34.00
21214;DHT22;10764;50.850;2.904;2022-12-18T05:18:42;13.70;33.50
21214;DHT22;10764;50.850;2.904;2022-12-18T05:21:09;14.30;34.50
21214;DHT22;10764;50.850;2.904;2022-12-18T05:23:36;13.70;33.40
21214;DHT22;10764;50.850;2.904;2022-12-18T05:26:05;17.60;36.10
21214;DHT22;10764;50.850;2.904;2022-12-18T05:28:33;13.60;34.00
21214;DHT22;10764;50.850;2.904;2022-12-18T05:31:02;13.10;33.70
21214;DHT22;10764;50.850;2.904;2022-12-18T05:33:31;13.70;33.40
21214;DHT22;10764;50.850;2.904;2022-12-18T05:36:00;13.50;33.90
21214;DHT22;10764;50.850;2.904;2022-12-18T05:38:30;13.70;34.00
21214;DHT22;10764;50.850;2.904;2022-12-18T05:40:57;13.30;33.80
21214;DHT22;10764;50.850;2.904;2022-12-18T05:43:25;13.70;33.30
21214;DHT22;10764;50.850;2.904;2022-12-18T05:45:53;14.10;34.20
21214;DHT22;10764;50.850;2.904;2022-12-18T05:48:20;13.70;33.90
21214;DHT22;10764;50.850;2.904;2022-12-18T05:50:48;13.50;33.80
21214;DHT22;10764;50.850;2.904;2022-12-18T05:53:18;16.40;35.20
21214;DHT22;10764;50.850;2.904;2022-12-18T05:55:46;15.80;34.90
21214;DHT22;10764;50.850;2.904;2022-12-18T05:58:14;13.70;34.00
21214;DHT22;10764;50.850;2.904;2022-12-18T06:00:45;13.70;33.90
21214;DHT22;10764;50.850;2.904;2022-12-18T06:03:13;14.80;34.40
21214;DHT22;10764;50.850;2.904;2022-12-18T06:05:45;13.30;33.70
21214;DHT22;10764;50.850;2.904;2022-12-18T06:08:12;13.30;33.70
21214;DHT22;10764;50.850;2.904;2022-12-18T06:10:40;13.70;33.90
21214;DHT22;10764;50.850;2.904;2022-12-18T06:13:07;13.70;33.30
21214;DHT22;10764;50.850;2.904;2022-12-18T06:15:36;13.40;33.80
21214;DHT22;10764;50.850;2.904;2022-12-18T06:18:03;15.30;34.80
21214;DHT22;10764;50.850;2.904;2022-12-18T06:20:30;13.70;34.00
21214;DHT22;10764;50.850;2.904;2022-12-18T06:22:59;13.50;33.90
21214;DHT22;10764;50.850;2.904;2022-12-18T06:25:26;13.70;33.20
21214;DHT22;10764;50.850;2.904;2022-12-18T06:27:53;13.70;33.90
21214;DHT22;10764;50.850;2.904;2022-12-18T06:30:20;15.30;34.80
21214;DHT22;10764;50.850;2.904;2022-12-18T06:32:48;13.50;33.80
21214;DHT22;10764;50.850;2.904;2022-12-18T06:35:22;13.70;33.20
21214;DHT22;10764;50.850;2.904;2022-12-18T06:37:48;13.60;33.80
21214;DHT22;10764;50.850;2.904;2022-12-18T06:40:16;13.60;33.80
21214;DHT22;10764;50.850;2.904;2022-12-18T06:42:43;13.70;34.00
21214;DHT22;10764;50.850;2.904;2022-12-18T06:45:10;13.70;33.10
21214;DHT22;10764;50.850;2.904;2022-12-18T06:47:38;13.40;33.80
21214;DHT22;10764;50.850;2.904;2022-12-18T06:50:05;13.70;33.90
21214;DHT22;10764;50.850;2.904;2022-12-18T06:52:32;13.70;33.20
21214;DHT22;10764;50.850;2.904;2022-12-18T06:55:00;13.20;33.60
21214;DHT22;10764;50.850;2.904;2022-12-18T06:57:27;13.70;33.10
21214;DHT22;10764;50.850;2.904;2022-12-18T06:59:54;15.40;34.70
21214;DHT22;10764;50.850;2.904;2022-12-18T07:02:21;12.80;33.50
21214;DHT22;10764;50.850;2.904;2022-12-18T07:04:48;12.90;33.40
21214;DHT22;10764;50.850;2.904;2022-12-18T07:07:14;13.70;33.20
21214;DHT22;10764;50.850;2.904;2022-12-18T07:09:41;13.60;33.80
21214;DHT22;10764;50.850;2.904;2022-12-18T07:12:08;13.70;33.90
21214;DHT22;10764;50.850;2.904;2022-12-18T07:14:35;13.70;33.90
21214;DHT22;10764;50.850;2.904;2022-12-18T07:17:01;16.30;35.10
21214;DHT22;10764;50.850;2.904;2022-12-18T07:19:29;13.30;33.60
21214;DHT22;10764;50.850;2.904;2022-12-18T07:21:56;16.00;34.90
21214;DHT22;10764;50.850;2.904;2022-12-18T07:24:23;13.50;33.70
21214;DHT22;10764;50.850;2.904;2022-12-18T07:26:50;13.60;33.70
21214;DHT22;10764;50.850;2.904;2022-12-18T07:29:16;13.60;33.90
21214;DHT22;10764;50.850;2.904;2022-12-18T07:31:44;13.50;33.70
21214;DHT22;10764;50.850;2.904;2022-12-18T07:34:12;13.70;33.10
21214;DHT22;10764;50.850;2.904;2022-12-18T07:36:39;13.60;33.70
21214;DHT22;10764;50.850;2.904;2022-12-18T07:39:06;12.90;33.40
21214;DHT22;10764;50.850;2.904;2022-12-18T07:41:34;13.70;33.10
21214;DHT22;10764;50.850;2.904;2022-12-18T07:44:11;13.60;33.70
21214;DHT22;10764;50.850;2.904;2022-12-18T07:46:38;13.70;33.70
21214;DHT22;10764;50.850;2.904;2022-12-18T07:49:05;13.40;33.70
21214;DHT22;10764;50.850;2.904;2022-12-18T07:51:32;13.80;33.80
21214;DHT22;10764;50.850;2.904;2022-12-18T07:53:59;13.60;33.80
21214;DHT22;10764;50.850;2.904;2022-12-18T07:56:25;12.90;33.50
21214;DHT22;10764;50.850;2.904;2022-12-18T07:58:55;13.70;33.10
21214;DHT22;10764;50.850;2.904;2022-12-18T08:01:22;13.20;33.60
21214;DHT22;10764;50.850;2.904;2022-12-18T08:03:50;13.60;33.00
21214;DHT22;10764;50.850;2.904;2022-12-18T08:06:18;13.70;33.10
21214;DHT22;10764;50.850;2.904;2022-12-18T08:08:53;13.80;33.50
21214;DHT22;10764;50.850;2.904;2022-12-18T08:11:21;13.70;34.10
21214;DHT22;10764;50.850;2.904;2022-12-18T08:18:43;13.70;34.60
21214;DHT22;10764;50.850;2.904;2022-12-18T08:21:15;13.70;34.90
21214;DHT22;10764;50.850;2.904;2022-12-18T08:23:43;13.80;35.00
21214;DHT22;10764;50.850;2.904;2022-12-18T08:26:11;13.70;35.00
21214;DHT22;10764;50.850;2.904;2022-12-18T08:28:38;13.80;35.20
21214;DHT22;10764;50.850;2.904;2022-12-18T08:31:05;13.80;35.20
21214;DHT22;10764;50.850;2.904;2022-12-18T08:33:33;13.70;35.20
21214;DHT22;10764;50.850;2.904;2022-12-18T08:41:03;13.80;35.40
21214;DHT22;10764;50.850;2.904;2022-12-18T08:43:30;13.70;35.30
21214;DHT22;10764;50.850;2.904;2022-12-18T08:46:38;13.80;35.40
21214;DHT22;10764;50.850;2.904;2022-12-18T08:54:01;13.80;35.50
21214;DHT22;10764;50.850;2.904;2022-12-18T09:41:06;13.80;35.50
21214;DHT22;10764;50.850;2.904;2022-12-18T10:17:55;14.00;37.60
21214;DHT22;10764;50.850;2.904;2022-12-18T11:01:17;13.80;39.50
21214;DHT22;10764;50.850;2.904;2022-12-18T13:45:35;13.90;37.40
21214;DHT22;10764;50.850;2.904;2022-12-18T14:13:26;13.90;37.30
21214;DHT22;10764;50.850;2.904;2022-12-18T14:15:55;13.90;37.40
21214;DHT22;10764;50.850;2.904;2022-12-18T14:18:51;13.90;37.40
21214;DHT22;10764;50.850;2.904;2022-12-18T14:21:23;14.00;37.40
21214;DHT22;10764;50.850;2.904;2022-12-18T14:24:23;14.00;37.30
21214;DHT22;10764;50.850;2.904;2022-12-18T14:26:50;14.00;37.20
21214;DHT22;10764;50.850;2.904;2022-12-18T14:29:26;13.90;37.10
21214;DHT22;10764;50.850;2.904;2022-12-18T14:34:47;13.90;37.10
21214;DHT22;10764;50.850;2.904;2022-12-18T14:37:16;13.90;37.10
21214;DHT22;10764;50.850;2.904;2022-12-18T14:42:21;13.90;37.00
21214;DHT22;10764;50.850;2.904;2022-12-18T14:44:47;13.80;36.90
21214;DHT22;10764;50.850;2.904;2022-12-18T14:47:34;9.80;34.90
21214;DHT22;10764;50.850;2.904;2022-12-18T14:50:01;13.90;36.90
21214;DHT22;10764;50.850;2.904;2022-12-18T14:52:29;14.00;36.90
21214;DHT22;10764;50.850;2.904;2022-12-18T14:54:58;13.90;36.80
21214;DHT22;10764;50.850;2.904;2022-12-18T14:57:28;13.80;36.80
21214;DHT22;10764;50.850;2.904;2022-12-18T15:00:06;13.90;36.80
21214;DHT22;10764;50.850;2.904;2022-12-18T15:02:35;13.90;36.80
21214;DHT22;10764;50.850;2.904;2022-12-18T15:07:52;13.90;37.30
21214;DHT22;10764;50.850;2.904;2022-12-18T15:10:23;13.90;36.70
21214;DHT22;10764;50.850;2.904;2022-12-18T15:13:05;13.90;36.70
21214;DHT22;10764;50.850;2.904;2022-12-18T15:18:01;13.80;36.70
21214;DHT22;10764;50.850;2.904;2022-12-18T15:20:31;13.80;36.70
21214;DHT22;10764;50.850;2.904;2022-12-18T15:25:36;13.80;36.60
21214;DHT22;10764;50.850;2.904;2022-12-18T15:28:14;13.80;36.60
21214;DHT22;10764;50.850;2.904;2022-12-18T15:31:01;13.90;36.70
21214;DHT22;10764;50.850;2.904;2022-12-18T15:33:34;13.80;36.70
21214;DHT22;10764;50.850;2.904;2022-12-18T15:36:08;13.90;36.70
21214;DHT22;10764;50.850;2.904;2022-12-18T15:38:35;13.90;37.40
21214;DHT22;10764;50.850;2.904;2022-12-18T15:41:02;13.80;36.60
21214;DHT22;10764;50.850;2.904;2022-12-18T15:43:30;13.80;36.70
21214;DHT22;10764;50.850;2.904;2022-12-18T15:46:26;13.90;36.70
21214;DHT22;10764;50.850;2.904;2022-12-18T15:48:55;13.80;36.60
21214;DHT22;10764;50.850;2.904;2022-12-18T15:54:10;13.80;36.70
21214;DHT22;10764;50.850;2.904;2022-12-18T15:56:38;13.80;36.70
21214;DHT22;10764;50.850;2.904;2022-12-18T15:59:24;13.70;36.60
21214;DHT22;10764;50.850;2.904;2022-12-18T16:01:51;13.80;36.70
21214;DHT22;10764;50.850;2.904;2022-12-18T16:04:20;13.80;36.70
21214;DHT22;10764;50.850;2.904;2022-12-18T16:06:48;13.80;36.70
21214;DHT22;10764;50.850;2.904;2022-12-18T16:09:36;13.90;36.90
21214;DHT22;10764;50.850;2.904;2022-12-18T16:12:03;13.80;36.80
21214;DHT22;10764;50.850;2.904;2022-12-18T16:14:31;13.80;36.90
21214;DHT22;10764;50.850;2.904;2022-12-18T16:17:00;13.80;36.90
21214;DHT22;10764;50.850;2.904;2022-12-18T16:19:29;13.90;36.90
21214;DHT22;10764;50.850;2.904;2022-12-18T16:21:57;13.80;36.90
21214;DHT22;10764;50.850;2.904;2022-12-18T16:24:26;13.80;37.00
21214;DHT22;10764;50.850;2.904;2022-12-18T16:26:54;13.80;36.90
21214;DHT22;10764;50.850;2.904;2022-12-18T16:29:24;13.90;37.00
21214;DHT22;10764;50.850;2.904;2022-12-18T16:31:55;13.80;37.00
21214;DHT22;10764;50.850;2.904;2022-12-18T16:34:30;13.80;37.00
21214;DHT22;10764;50.850;2.904;2022-12-18T16:37:04;13.80;37.00
21214;DHT22;10764;50.850;2.904;2022-12-18T16:39:36;13.90;37.20
21214;DHT22;10764;50.850;2.904;2022-12-18T16:42:14;13.80;37.10
21214;DHT22;10764;50.850;2.904;2022-12-18T16:44:43;13.80;37.10
21214;DHT22;10764;50.850;2.904;2022-12-18T16:47:10;13.90;37.30
21214;DHT22;10764;50.850;2.904;2022-12-18T16:49:41;13.80;37.20
21214;DHT22;10764;50.850;2.904;2022-12-18T16:52:08;13.70;37.20
21214;DHT22;10764;50.850;2.904;2022-12-18T16:54:34;13.90;37.30
21214;DHT22;10764;50.850;2.904;2022-12-18T16:57:02;13.70;37.20
21214;DHT22;10764;50.850;2.904;2022-12-18T16:59:33;13.80;37.40
21214;DHT22;10764;50.850;2.904;2022-12-18T17:02:00;13.80;37.40
21214;DHT22;10764;50.850;2.904;2022-12-18T17:04:27;13.80;37.40
21214;DHT22;10764;50.850;2.904;2022-12-18T17:06:54;13.80;37.40
21214;DHT22;10764;50.850;2.904;2022-12-18T17:09:22;13.80;37.40
21214;DHT22;10764;50.850;2.904;2022-12-18T17:11:53;13.80;37.50
21214;DHT22;10764;50.850;2.904;2022-12-18T17:14:22;13.80;37.50
21214;DHT22;10764;50.850;2.904;2022-12-18T17:16:51;13.90;37.60
21214;DHT22;10764;50.850;2.904;2022-12-18T17:19:38;13.90;37.70
21214;DHT22;10764;50.850;2.904;2022-12-18T17:22:04;13.80;37.60
21214;DHT22;10764;50.850;2.904;2022-12-18T17:24:31;13.70;37.60
21214;DHT22;10764;50.850;2.904;2022-12-18T17:27:02;13.80;37.70
21214;DHT22;10764;50.850;2.904;2022-12-18T17:29:29;13.70;37.70
21214;DHT22;10764;50.850;2.904;2022-12-18T17:31:56;13.70;37.80
21214;DHT22;10764;50.850;2.904;2022-12-18T17:34:25;13.70;37.80
21214;DHT22;10764;50.850;2.904;2022-12-18T17:36:52;13.80;37.90
21214;DHT22;10764;50.850;2.904;2022-12-18T17:39:20;13.80;37.90
21214;DHT22;10764;50.850;2.904;2022-12-18T17:41:48;13.70;37.90
21214;DHT22;10764;50.850;2.904;2022-12-18T17:44:15;13.80;38.00
21214;DHT22;10764;50.850;2.904;2022-12-18T17:46:42;13.70;37.90
21214;DHT22;10764;50.850;2.904;2022-12-18T17:49:10;13.80;38.10
21214;DHT22;10764;50.850;2.904;2022-12-18T17:51:38;13.90;38.20
21214;DHT22;10764;50.850;2.904;2022-12-18T17:54:05;13.80;38.10
21214;DHT22;10764;50.850;2.904;2022-12-18T17:56:32;13.80;38.20
21214;DHT22;10764;50.850;2.904;2022-12-18T17:58:59;13.70;38.10
21214;DHT22;10764;50.850;2.904;2022-12-18T18:01:26;13.70;38.20
21214;DHT22;10764;50.850;2.904;2022-12-18T18:03:53;13.70;38.20
21214;DHT22;10764;50.850;2.904;2022-12-18T18:06:26;13.70;38.20
21214;DHT22;10764;50.850;2.904;2022-12-18T18:08:53;13.80;38.30
21214;DHT22;10764;50.850;2.904;2022-12-18T18:11:22;13.80;38.40
21214;DHT22;10764;50.850;2.904;2022-12-18T18:14:16;13.80;38.40
21214;DHT22;10764;50.850;2.904;2022-12-18T18:16:46;13.80;38.50
21214;DHT22;10764;50.850;2.904;2022-12-18T18:19:16;13.30;38.90
21214;DHT22;10764;50.850;2.904;2022-12-18T18:21:44;13.80;38.50
21214;DHT22;10764;50.850;2.904;2022-12-18T18:24:15;13.80;38.60
21214;DHT22;10764;50.850;2.904;2022-12-18T18:26:42;13.90;38.60
21214;DHT22;10764;50.850;2.904;2022-12-18T18:29:18;13.80;38.60
21214;DHT22;10764;50.850;2.904;2022-12-18T18:31:46;13.80;38.70
21214;DHT22;10764;50.850;2.904;2022-12-18T18:34:15;13.80;38.70
21214;DHT22;10764;50.850;2.904;2022-12-18T18:36:42;13.70;38.70
21214;DHT22;10764;50.850;2.904;2022-12-18T18:39:08;13.80;38.80
21214;DHT22;10764;50.850;2.904;2022-12-18T18:41:36;13.70;38.80
21214;DHT22;10764;50.850;2.904;2022-12-18T18:44:03;13.70;38.80
21214;DHT22;10764;50.850;2.904;2022-12-18T18:46:30;13.80;38.90
21214;DHT22;10764;50.850;2.904;2022-12-18T18:48:57;13.70;38.90
21214;DHT22;10764;50.850;2.904;2022-12-18T19:04:09;13.90;39.10
21214;DHT22;10764;50.850;2.904;2022-12-18T19:06:36;13.80;39.10
21214;DHT22;10764;50.850;2.904;2022-12-18T19:09:03;13.70;39.20
21214;DHT22;10764;50.850;2.904;2022-12-18T19:11:32;13.70;39.20
21214;DHT22;10764;50.850;2.904;2022-12-18T19:14:25;13.80;39.30
21214;DHT22;10764;50.850;2.904;2022-12-18T19:16:52;13.80;39.40
21214;DHT22;10764;50.850;2.904;2022-12-18T19:19:19;13.70;39.30
21214;DHT22;10764;50.850;2.904;2022-12-18T19:21:47;13.80;39.40
21214;DHT22;10764;50.850;2.904;2022-12-18T19:24:15;13.80;39.40
21214;DHT22;10764;50.850;2.904;2022-12-18T19:29:10;13.70;39.40
21214;DHT22;10764;50.850;2.904;2022-12-18T19:31:39;13.70;39.50
21214;DHT22;10764;50.850;2.904;2022-12-18T19:34:06;13.80;39.50
21214;DHT22;10764;50.850;2.904;2022-12-18T19:36:36;13.80;39.50
21214;DHT22;10764;50.850;2.904;2022-12-18T19:39:12;13.70;39.50
21214;DHT22;10764;50.850;2.904;2022-12-18T19:41:41;13.70;39.60
21214;DHT22;10764;50.850;2.904;2022-12-18T19:44:11;13.80;39.70
21214;DHT22;10764;50.850;2.904;2022-12-18T19:46:38;13.80;39.70
21214;DHT22;10764;50.850;2.904;2022-12-18T19:49:09;13.80;39.70
21214;DHT22;10764;50.850;2.904;2022-12-18T19:51:37;13.70;39.70
21214;DHT22;10764;50.850;2.904;2022-12-18T19:56:32;13.70;39.70
21214;DHT22;10764;50.850;2.904;2022-12-18T19:59:01;13.80;39.80
21214;DHT22;10764;50.850;2.904;2022-12-18T20:01:28;13.80;39.90
21214;DHT22;10764;50.850;2.904;2022-12-18T20:03:56;13.70;39.80
21214;DHT22;10764;50.850;2.904;2022-12-18T20:08:59;13.70;39.90
21214;DHT22;10764;50.850;2.904;2022-12-18T20:11:31;13.70;39.90
21214;DHT22;10764;50.850;2.904;2022-12-18T20:13:58;13.80;40.00
21214;DHT22;10764;50.850;2.904;2022-12-18T20:16:25;13.70;39.90
21214;DHT22;10764;50.850;2.904;2022-12-18T20:18:52;13.80;40.00
21214;DHT22;10764;50.850;2.904;2022-12-18T20:21:19;13.80;40.00
21214;DHT22;10764;50.850;2.904;2022-12-18T20:23:46;13.80;40.00
21214;DHT22;10764;50.850;2.904;2022-12-18T20:26:13;13.70;40.00
21214;DHT22;10764;50.850;2.904;2022-12-18T20:28:40;13.60;40.00
21214;DHT22;10764;50.850;2.904;2022-12-18T20:31:07;13.70;40.10
21214;DHT22;10764;50.850;2.904;2022-12-18T20:33:40;13.80;40.20
21214;DHT22;10764;50.850;2.904;2022-12-18T20:36:14;13.70;40.10
21214;DHT22;10764;50.850;2.904;2022-12-18T20:38:46;13.70;40.10
21214;DHT22;10764;50.850;2.904;2022-12-18T20:41:17;13.70;40.20
21214;DHT22;10764;50.850;2.904;2022-12-18T20:43:44;13.80;40.20
21214;DHT22;10764;50.850;2.904;2022-12-18T20:46:13;13.70;40.20
21214;DHT22;10764;50.850;2.904;2022-12-18T20:48:41;13.70;40.30
21214;DHT22;10764;50.850;2.904;2022-12-18T20:51:10;13.70;40.30
21214;DHT22;10764;50.850;2.904;2022-12-18T20:53:38;13.70;40.30
21214;DHT22;10764;50.850;2.904;2022-12-18T20:56:19;13.70;40.30
21214;DHT22;10764;50.850;2.904;2022-12-18T20:58:48;13.80;40.40
21214;DHT22;10764;50.850;2.904;2022-12-18T21:01:21;13.80;40.40
21214;DHT22;10764;50.850;2.904;2022-12-18T21:03:49;13.80;40.40
21214;DHT22;10764;50.850;2.904;2022-12-18T21:06:18;13.80;40.50
21214;DHT22;10764;50.850;2.904;2022-12-18T21:08:45;13.80;40.50
21214;DHT22;10764;50.850;2.904;2022-12-18T21:14:20;13.80;40.60
21214;DHT22;10764;50.850;2.904;2022-12-18T21:16:48;13.70;40.60
21214;DHT22;10764;50.850;2.904;2022-12-18T21:19:20;13.80;40.70
21214;DHT22;10764;50.850;2.904;2022-12-18T21:21:48;13.80;40.70
21214;DHT22;10764;50.850;2.904;2022-12-18T21:24:15;13.80;40.70
21214;DHT22;10764;50.850;2.904;2022-12-18T21:26:43;13.80;40.70
21214;DHT22;10764;50.850;2.904;2022-12-18T21:29:18;13.80;40.80
21214;DHT22;10764;50.850;2.904;2022-12-18T21:31:45;13.80;40.80
21214;DHT22;10764;50.850;2.904;2022-12-18T21:34:16;13.70;40.80
21214;DHT22;10764;50.850;2.904;2022-12-18T21:36:43;13.80;40.80
21214;DHT22;10764;50.850;2.904;2022-12-18T21:39:12;13.70;40.80
21214;DHT22;10764;50.850;2.904;2022-12-18T21:41:39;13.90;41.00
21214;DHT22;10764;50.850;2.904;2022-12-18T21:44:24;13.80;41.00
21214;DHT22;10764;50.850;2.904;2022-12-18T21:46:51;13.80;41.00
21214;DHT22;10764;50.850;2.904;2022-12-18T21:49:27;13.70;41.00
21214;DHT22;10764;50.850;2.904;2022-12-18T21:51:57;13.80;41.10
21214;DHT22;10764;50.850;2.904;2022-12-18T21:54:25;13.70;41.10
21214;DHT22;10764;50.850;2.904;2022-12-18T21:56:56;13.80;41.30
21214;DHT22;10764;50.850;2.904;2022-12-18T21:59:25;13.70;41.20
21214;DHT22;10764;50.850;2.904;2022-12-18T22:01:54;13.70;41.30